createdAt,value
2023-04-27T00:04:51.260Z,9.68
2023-04-27T00:09:48.263Z,9.57
2023-04-27T00:14:45.869Z,9.42
2023-04-27T00:19:42.567Z,9.51
2023-04-27T00:24:41.064Z,9.66
2023-04-27T00:29:42.084Z,9.72
2023-04-27T00:34:39.637Z,9.37
2023-04-27T00:39:36.400Z,9.80
2023-04-27T00:44:33.310Z,9.83
2023-04-27T00:49:30.728Z,9.58
2023-04-27T00:54:29.110Z,9.99
2023-04-27T00:59:26.105Z,10.03
2023-04-27T01:04:23.550Z,9.82
2023-04-27T01:09:21.267Z,9.74
2023-04-27T01:14:20.718Z,10.02
2023-04-27T01:19:17.520Z,10.06
2023-04-27T01:24:15.019Z,10.09
2023-04-27T01:29:12.228Z,9.99
2023-04-27T01:34:09.225Z,9.74
2023-04-27T01:39:08.726Z,9.95
2023-04-27T01:44:06.864Z,9.85
2023-04-27T01:49:05.000Z,10.12
2023-04-27T01:54:01.753Z,10.09
2023-04-27T01:58:58.501Z,10.13
2023-04-27T02:03:56.330Z,10.24
2023-04-27T02:08:53.319Z,10.36
2023-04-27T02:13:50.165Z,10.51
2023-04-27T02:18:47.140Z,10.68
2023-04-27T02:23:44.635Z,10.79
2023-04-27T02:28:41.337Z,10.88
2023-04-27T02:33:38.660Z,10.31
2023-04-27T02:38:35.443Z,10.13
2023-04-27T02:43:33.837Z,10.15
2023-04-27T02:48:30.751Z,10.70
2023-04-27T02:53:27.835Z,10.85
2023-04-27T02:58:25.502Z,10.90
2023-04-27T03:03:23.597Z,10.79
2023-04-27T03:08:20.612Z,11.15
2023-04-27T03:13:17.414Z,11.03
2023-04-27T03:18:14.158Z,11.48
2023-04-27T03:23:11.949Z,11.58
2023-04-27T03:28:08.802Z,11.78
2023-04-27T03:33:05.692Z,11.96
2023-04-27T03:38:02.634Z,11.58
2023-04-27T03:43:00.500Z,12.13
2023-04-27T03:47:57.898Z,12.29
2023-04-27T03:52:55.458Z,12.34
2023-04-27T03:57:52.328Z,12.08
2023-04-27T04:02:52.937Z,12.53
2023-04-27T04:07:50.224Z,12.33
2023-04-27T04:12:47.245Z,12.53
2023-04-27T04:17:44.284Z,12.69
2023-04-27T04:22:42.603Z,12.75
2023-04-27T04:27:39.385Z,12.81
2023-04-27T04:32:37.659Z,12.89
2023-04-27T04:37:36.742Z,12.85
2023-04-27T04:42:34.877Z,12.60
2023-04-27T04:47:32.017Z,12.92
2023-04-27T04:52:29.018Z,13.17
2023-04-27T04:57:25.934Z,13.09
2023-04-27T05:02:25.992Z,13.24
2023-04-27T05:07:24.938Z,13.35
2023-04-27T05:12:22.001Z,13.42
2023-04-27T05:17:18.832Z,13.50
2023-04-27T05:22:16.424Z,13.62
2023-04-27T05:27:13.724Z,13.74
2023-04-27T05:32:10.702Z,13.94
2023-04-27T05:37:07.983Z,13.71
2023-04-27T05:42:06.063Z,13.65
2023-04-27T05:47:03.140Z,13.68
2023-04-27T05:52:00.235Z,14.13
2023-04-27T05:56:57.164Z,14.22
2023-04-27T06:01:55.165Z,14.27
2023-04-27T06:06:52.075Z,13.90
2023-04-27T06:11:49.070Z,14.03
2023-04-27T06:16:46.041Z,13.70
2023-04-27T06:21:43.621Z,13.50
2023-04-27T06:26:40.677Z,13.62
2023-04-27T06:31:37.610Z,13.00
2023-04-27T06:36:34.688Z,13.61
2023-04-27T06:41:33.262Z,13.19
2023-04-27T06:46:30.473Z,13.67
2023-04-27T06:51:27.820Z,13.97
2023-04-27T06:56:24.552Z,14.27
2023-04-27T07:01:22.063Z,14.27
2023-04-27T07:06:25.420Z,14.56
2023-04-27T07:11:22.375Z,14.58
2023-04-27T07:16:19.514Z,14.51
2023-04-27T07:21:16.941Z,14.94
2023-04-27T07:26:14.026Z,15.07
2023-04-27T07:31:19.806Z,15.28
2023-04-27T07:36:17.523Z,15.48
2023-04-27T07:41:15.055Z,15.60
2023-04-27T07:46:12.490Z,15.58
2023-04-27T07:51:09.594Z,15.62
2023-04-27T07:56:08.099Z,15.80
2023-04-27T08:01:06.028Z,16.03
2023-04-27T08:06:04.894Z,16.28
2023-04-27T08:11:02.749Z,16.61
2023-04-27T08:16:00.605Z,16.58
2023-04-27T08:20:57.853Z,16.91
2023-04-27T08:25:54.890Z,17.08
2023-04-27T08:30:52.568Z,16.39
2023-04-27T08:35:50.483Z,15.93
2023-04-27T08:40:48.421Z,15.78
2023-04-27T08:45:49.589Z,15.83
2023-04-27T08:50:50.304Z,16.18
2023-04-27T08:55:47.945Z,16.33
2023-04-27T09:00:45.493Z,16.47
2023-04-27T09:05:56.408Z,17.28
2023-04-27T09:10:58.193Z,18.21
2023-04-27T09:15:55.068Z,18.91
2023-04-27T09:20:53.351Z,19.61
2023-04-27T09:25:50.209Z,20.44
2023-04-27T09:30:53.816Z,21.61
2023-04-27T09:35:51.057Z,23.12
2023-04-27T09:40:48.918Z,24.17
2023-04-27T09:45:46.113Z,24.54
2023-04-27T09:50:44.844Z,24.36
2023-04-27T09:55:48.223Z,23.75
2023-04-27T10:00:59.818Z,23.19
2023-04-27T10:06:41.397Z,22.95
2023-04-27T10:11:39.792Z,22.75
2023-04-27T10:16:45.320Z,23.11
2023-04-27T10:21:59.923Z,23.35
2023-04-27T10:27:04.916Z,23.80
2023-04-27T10:32:25.703Z,23.85
2023-04-27T10:37:39.352Z,23.50
2023-04-27T10:42:38.226Z,23.13
2023-04-27T10:47:40.892Z,23.76
2023-04-27T10:52:41.798Z,23.75
2023-04-27T10:57:49.368Z,24.30
2023-04-27T11:02:46.746Z,24.29
2023-04-27T11:07:44.473Z,24.40
2023-04-27T11:12:41.742Z,24.14
2023-04-27T11:17:38.660Z,24.32
2023-04-27T11:22:45.569Z,24.23
2023-04-27T11:27:42.460Z,24.01
2023-04-27T11:32:39.320Z,24.11
2023-04-27T11:37:36.969Z,23.52
2023-04-27T11:42:34.976Z,23.43
2023-04-27T11:47:35.028Z,23.13
2023-04-27T11:52:32.939Z,22.67
2023-04-27T11:57:35.380Z,22.25
2023-04-27T12:02:32.814Z,22.10
2023-04-27T12:07:30.984Z,22.10
2023-04-27T12:12:28.104Z,21.84
2023-04-27T12:17:26.218Z,21.43
2023-04-27T12:22:23.247Z,21.53
2023-04-27T12:27:20.177Z,21.34
2023-04-27T12:32:17.232Z,21.39
2023-04-27T12:37:15.086Z,20.94
2023-04-27T12:42:12.079Z,20.85
2023-04-27T12:47:20.026Z,21.30
2023-04-27T12:52:25.892Z,21.60
2023-04-27T12:57:22.769Z,21.50
2023-04-27T13:02:19.827Z,21.17
2023-04-27T13:07:18.931Z,20.99
2023-04-27T13:12:17.614Z,21.18
2023-04-27T13:17:14.472Z,20.89
2023-04-27T13:22:11.493Z,20.30
2023-04-27T13:27:12.199Z,20.34
2023-04-27T13:32:09.972Z,20.05
2023-04-27T13:37:07.291Z,19.90
2023-04-27T13:42:05.600Z,19.73
2023-04-27T13:47:02.550Z,19.55
2023-04-27T13:52:00.561Z,19.48
2023-04-27T13:56:57.466Z,19.37
2023-04-27T14:01:54.421Z,19.42
2023-04-27T14:06:51.398Z,18.83
2023-04-27T14:11:56.375Z,18.73
2023-04-27T14:16:54.470Z,19.00
2023-04-27T14:21:51.311Z,19.00
2023-04-27T14:26:49.712Z,18.97
2023-04-27T14:31:47.102Z,18.93
2023-04-27T14:36:43.985Z,18.63
2023-04-27T14:41:40.871Z,18.94
2023-04-27T14:46:41.471Z,19.02
2023-04-27T14:51:38.469Z,19.01
2023-04-27T14:56:36.416Z,18.71
2023-04-27T15:01:33.488Z,18.72
2023-04-27T15:06:32.537Z,18.65
2023-04-27T15:11:33.450Z,18.50
2023-04-27T15:16:30.477Z,18.56
2023-04-27T15:21:30.106Z,18.55
2023-04-27T15:26:27.839Z,18.40
2023-04-27T15:31:24.764Z,18.22
2023-04-27T15:36:22.749Z,18.32
2023-04-27T15:41:19.817Z,18.30
2023-04-27T15:46:18.298Z,18.26
2023-04-27T15:51:15.197Z,18.07
2023-04-27T15:56:12.056Z,17.79
2023-04-27T16:01:09.269Z,17.62
2023-04-27T16:06:07.664Z,17.80
2023-04-27T16:11:05.131Z,17.75
2023-04-27T16:16:03.774Z,17.67
2023-04-27T16:21:00.836Z,17.89
2023-04-27T16:25:58.644Z,17.46
2023-04-27T16:30:55.535Z,17.42
2023-04-27T16:35:52.339Z,17.51
2023-04-27T16:40:49.430Z,17.52
2023-04-27T16:45:46.979Z,16.99
2023-04-27T16:50:44.102Z,16.27
2023-04-27T16:55:41.016Z,15.43
2023-04-27T17:00:38.975Z,15.33
2023-04-27T17:05:37.113Z,14.15
2023-04-27T17:10:36.387Z,14.60
2023-04-27T17:15:33.524Z,13.92
2023-04-27T17:20:30.557Z,14.17
2023-04-27T17:25:28.334Z,13.77
2023-04-27T17:30:25.078Z,13.58
2023-04-27T17:35:24.830Z,13.88
2023-04-27T17:40:22.278Z,14.23
2023-04-27T17:45:20.286Z,14.46
2023-04-27T17:50:17.151Z,14.43
2023-04-27T17:55:16.647Z,14.38
2023-04-27T18:00:14.777Z,14.38
2023-04-27T18:05:12.407Z,14.71
2023-04-27T18:10:09.672Z,14.25
2023-04-27T18:15:09.692Z,14.63
2023-04-27T18:20:09.852Z,13.90
2023-04-27T18:25:10.167Z,13.91
2023-04-27T18:30:08.299Z,13.86
2023-04-27T18:35:06.391Z,14.62
2023-04-27T18:40:05.251Z,14.39
2023-04-27T18:45:02.916Z,14.58
2023-04-27T18:49:59.740Z,14.67
2023-04-27T18:54:56.560Z,14.66
2023-04-27T18:59:53.385Z,14.70
2023-04-27T19:04:56.839Z,14.67
2023-04-27T19:09:59.522Z,14.84
2023-04-27T19:14:59.112Z,14.76
2023-04-27T19:20:00.092Z,14.71
2023-04-27T19:24:58.060Z,14.88
2023-04-27T19:29:56.551Z,14.96
2023-04-27T19:34:53.714Z,15.06
2023-04-27T19:39:51.235Z,15.11
2023-04-27T19:44:48.004Z,14.91
2023-04-27T19:49:45.066Z,15.02
2023-04-27T19:54:43.676Z,15.05
2023-04-27T19:59:45.328Z,15.20
2023-04-27T20:04:42.439Z,15.34
2023-04-27T20:09:39.644Z,15.16
2023-04-27T20:14:41.859Z,14.94
2023-04-27T20:19:40.453Z,15.30
2023-04-27T20:24:38.124Z,15.05
2023-04-27T20:29:35.822Z,15.10
2023-04-27T20:34:32.545Z,14.70
2023-04-27T20:39:30.046Z,13.99
2023-04-27T20:44:27.252Z,13.61
2023-04-27T20:49:34.184Z,13.11
2023-04-27T20:54:32.673Z,12.82
2023-04-27T20:59:29.561Z,12.44
2023-04-27T21:04:26.564Z,11.84
2023-04-27T21:09:23.685Z,11.96
2023-04-27T21:14:21.595Z,11.48
2023-04-27T21:19:18.602Z,10.50
2023-04-27T21:24:15.549Z,10.72
2023-04-27T21:29:12.339Z,10.41
2023-04-27T21:34:09.866Z,10.05
2023-04-27T21:39:06.675Z,9.98
2023-04-27T21:44:03.646Z,9.83
2023-04-27T21:49:00.460Z,10.05
2023-04-27T21:53:58.417Z,10.16
2023-04-27T21:58:55.368Z,10.31
2023-04-27T22:03:52.461Z,10.51
2023-04-27T22:08:49.516Z,10.73
2023-04-27T22:13:46.964Z,10.61
2023-04-27T22:18:43.780Z,10.30
2023-04-27T22:23:40.819Z,10.49
2023-04-27T22:28:37.528Z,10.04
2023-04-27T22:33:36.613Z,10.08
2023-04-27T22:38:33.664Z,10.36
2023-04-27T22:43:30.453Z,10.15
2023-04-27T22:48:27.325Z,10.41
2023-04-27T22:53:25.296Z,10.44
2023-04-27T22:58:22.044Z,10.40
2023-04-27T23:03:19.013Z,10.56
2023-04-27T23:08:16.282Z,10.62
2023-04-27T23:13:14.075Z,10.74
2023-04-27T23:18:10.996Z,10.88
2023-04-27T23:23:07.864Z,11.04
2023-04-27T23:28:04.785Z,11.03
2023-04-27T23:33:02.421Z,11.00
2023-04-27T23:37:59.319Z,10.82
2023-04-27T23:42:56.126Z,11.22
2023-04-27T23:47:53.015Z,10.95
2023-04-27T23:52:50.658Z,10.88
2023-04-27T23:57:51.068Z,10.80
